createdAt,value
2022-10-20T00:00:38.794Z,99219.75
2022-10-20T00:05:40.869Z,99205.56
2022-10-20T00:10:43.383Z,99202.88
2022-10-20T00:15:52.548Z,99200.66
2022-10-20T00:20:54.607Z,99193.19
2022-10-20T00:26:07.993Z,99186.19
2022-10-20T00:31:10.357Z,99185.06
2022-10-20T00:36:15.051Z,99183.94
2022-10-20T00:41:19.095Z,99174.06
2022-10-20T00:46:24.634Z,99160.88
2022-10-20T00:51:32.677Z,99158.31
2022-10-20T00:56:36.822Z,99156.75
2022-10-20T01:01:40.494Z,99158.31
2022-10-20T01:06:42.363Z,99159.91
2022-10-20T01:11:54.526Z,99151.19
2022-10-20T01:17:38.160Z,99137.19
2022-10-20T01:23:04.931Z,99123.34
2022-10-20T01:28:15.333Z,99120.81
2022-10-20T01:33:35.501Z,99113.00
2022-10-20T01:38:44.913Z,99107.75
2022-10-20T01:43:49.578Z,99101.38
2022-10-20T01:48:51.445Z,99098.84
2022-10-20T01:53:53.309Z,99082.63
2022-10-20T01:59:00.963Z,99074.38
2022-10-20T02:04:05.000Z,99066.56
2022-10-20T02:09:13.318Z,99057.50
2022-10-20T02:14:18.969Z,99040.03
2022-10-20T02:19:23.794Z,99028.91
2022-10-20T02:24:30.733Z,99016.81
2022-10-20T02:29:38.562Z,99005.03
2022-10-20T02:34:42.479Z,99003.91
2022-10-20T02:39:44.558Z,98993.59
2022-10-20T02:44:46.398Z,98997.44
2022-10-20T02:49:49.166Z,98988.84
2022-10-20T02:54:50.967Z,98989.47
2022-10-20T02:59:52.921Z,98985.19
2022-10-20T03:04:54.728Z,98986.44
2022-10-20T03:09:56.573Z,98986.78
2022-10-20T03:14:58.666Z,98976.72
2022-10-20T03:20:00.521Z,98971.16
2022-10-20T03:25:02.370Z,98974.31
2022-10-20T03:30:04.526Z,98965.28
2022-10-20T03:35:06.796Z,98966.28
2022-10-20T03:40:09.201Z,98957.66
2022-10-20T03:45:13.759Z,98963.06
2022-10-20T03:50:18.182Z,98964.50
2022-10-20T03:55:20.311Z,98957.81
2022-10-20T04:00:22.139Z,98955.44
2022-10-20T04:05:23.946Z,98954.94
2022-10-20T04:10:25.761Z,98955.25
2022-10-20T04:15:27.996Z,98950.78
2022-10-20T04:20:29.810Z,98929.53
2022-10-20T04:25:31.581Z,98936.84
2022-10-20T04:30:33.365Z,98938.09
2022-10-20T04:35:35.630Z,98924.28
2022-10-20T04:40:37.576Z,98920.00
2022-10-20T04:45:39.373Z,98915.38
2022-10-20T04:50:41.149Z,98915.00
2022-10-20T04:55:42.986Z,98908.72
2022-10-20T05:00:44.778Z,98893.00
2022-10-20T05:05:47.878Z,98890.22
2022-10-20T05:10:49.690Z,98886.47
2022-10-20T05:15:54.652Z,98878.88
2022-10-20T05:21:08.183Z,98873.16
2022-10-20T05:26:18.804Z,98867.38
2022-10-20T05:31:23.266Z,98873.94
2022-10-20T05:36:27.105Z,98867.75
2022-10-20T05:41:33.503Z,98864.34
2022-10-20T05:46:41.764Z,98851.41
2022-10-20T05:51:45.603Z,98862.09
2022-10-20T05:56:47.439Z,98864.06
2022-10-20T06:01:49.462Z,98866.69
2022-10-20T06:06:52.514Z,98869.59
2022-10-20T06:11:54.886Z,98869.53
2022-10-20T06:16:57.307Z,98871.59
2022-10-20T06:22:03.773Z,98871.28
2022-10-20T06:27:08.804Z,98870.03
2022-10-20T06:32:10.629Z,98869.41
2022-10-20T06:37:13.203Z,98876.69
2022-10-20T06:42:14.961Z,98874.38
2022-10-20T06:47:20.249Z,98869.13
2022-10-20T06:52:22.097Z,98872.09
2022-10-20T06:57:23.984Z,98900.53
2022-10-20T07:02:25.784Z,98892.88
2022-10-20T07:07:27.636Z,98888.41
2022-10-20T07:12:29.448Z,98893.41
2022-10-20T07:17:31.629Z,98889.25
2022-10-20T07:22:34.057Z,98882.22
2022-10-20T07:27:36.153Z,98885.66
2022-10-20T07:32:38.482Z,98873.00
2022-10-20T07:37:40.663Z,98872.41
2022-10-20T07:42:42.455Z,98867.22
2022-10-20T07:47:46.921Z,98859.91
2022-10-20T07:52:53.360Z,98860.75
2022-10-20T07:57:55.230Z,98857.28
2022-10-20T08:02:57.028Z,98849.88
2022-10-20T08:08:00.634Z,98848.66
2022-10-20T08:13:02.447Z,98847.53
2022-10-20T08:18:04.946Z,98847.19
2022-10-20T08:23:06.789Z,98833.94
2022-10-20T08:28:08.931Z,98828.47
2022-10-20T08:33:11.048Z,98817.69
2022-10-20T08:38:12.921Z,98811.31
2022-10-20T08:43:19.657Z,98812.66
2022-10-20T08:48:26.169Z,98804.22
2022-10-20T08:53:32.786Z,98799.69
2022-10-20T08:58:34.649Z,98789.75
2022-10-20T09:03:36.553Z,98800.75
2022-10-20T09:08:40.208Z,98784.19
2022-10-20T09:13:42.242Z,98782.50
2022-10-20T09:18:44.228Z,98789.63
2022-10-20T09:23:49.470Z,98777.31
2022-10-20T09:29:12.998Z,98762.59
2022-10-20T09:34:30.774Z,98767.31
2022-10-20T09:39:56.067Z,98756.38
2022-10-20T09:45:01.773Z,98756.75
2022-10-20T09:50:08.578Z,98750.91
2022-10-20T09:55:26.593Z,98748.56
2022-10-20T10:00:37.891Z,98752.56
2022-10-20T10:05:40.531Z,98746.31
2022-10-20T10:10:45.160Z,98729.25
2022-10-20T10:15:47.104Z,98737.84
2022-10-20T10:20:58.487Z,98737.56
2022-10-20T10:26:02.274Z,98738.03
2022-10-20T10:31:24.916Z,98717.03
2022-10-20T10:36:35.626Z,98717.84
2022-10-20T10:42:08.663Z,98715.59
2022-10-20T10:47:13.128Z,98713.25
2022-10-20T10:52:14.863Z,98700.09
2022-10-20T10:57:31.547Z,98698.94
2022-10-20T11:02:39.619Z,98684.56
2022-10-20T11:08:02.569Z,98676.03
2022-10-20T11:13:13.005Z,98677.63
2022-10-20T11:18:14.620Z,98680.06
2022-10-20T11:23:16.351Z,98669.16
2022-10-20T11:28:44.518Z,98670.75
2022-10-20T11:33:51.540Z,98659.84
2022-10-20T11:38:56.035Z,98652.06
2022-10-20T11:44:18.235Z,98655.63
2022-10-20T11:49:20.297Z,98653.28
2022-10-20T11:54:44.839Z,98635.69
2022-10-20T12:00:17.967Z,98638.00
2022-10-20T12:05:35.071Z,98644.22
2022-10-20T12:10:39.909Z,98639.97
2022-10-20T12:15:47.686Z,98636.44
2022-10-20T12:20:53.070Z,98617.66
2022-10-20T12:25:55.000Z,98623.88
2022-10-20T12:31:04.013Z,98611.34
2022-10-20T12:36:14.877Z,98602.72
2022-10-20T12:41:34.938Z,98600.44
2022-10-20T12:46:43.848Z,98587.94
2022-10-20T12:51:50.609Z,98576.94
2022-10-20T12:56:58.544Z,98576.19
2022-10-20T13:02:09.491Z,98591.03
2022-10-20T13:07:11.404Z,98595.69
2022-10-20T13:12:26.865Z,98572.19
2022-10-20T13:17:43.338Z,98573.06
2022-10-20T13:22:49.673Z,98559.44
2022-10-20T13:27:51.539Z,98573.78
2022-10-20T13:33:33.328Z,98546.22
2022-10-20T13:38:42.331Z,98547.53
2022-10-20T13:44:04.373Z,98539.44
2022-10-20T13:49:18.800Z,98533.09
2022-10-20T13:54:26.969Z,98527.22
2022-10-20T13:59:30.705Z,98520.41
2022-10-20T14:04:34.867Z,98526.50
2022-10-20T14:09:38.647Z,98530.22
2022-10-20T14:14:45.106Z,98517.09
2022-10-20T14:19:47.050Z,98527.47
2022-10-20T14:24:52.514Z,98500.38
2022-10-20T14:29:56.065Z,98513.50
2022-10-20T14:35:14.537Z,98510.31
2022-10-20T14:40:21.758Z,98512.41
2022-10-20T14:45:26.348Z,98501.59
2022-10-20T14:50:31.143Z,98508.75
2022-10-20T14:55:39.544Z,98489.50
2022-10-20T15:00:41.419Z,98492.47
2022-10-20T15:05:45.164Z,98478.28
2022-10-20T15:10:47.157Z,98486.38
2022-10-20T15:15:49.278Z,98487.03
2022-10-20T15:20:53.093Z,98485.38
2022-10-20T15:26:05.187Z,98483.72
2022-10-20T15:31:12.842Z,98479.69
2022-10-20T15:36:20.698Z,98462.34
2022-10-20T15:41:28.494Z,98446.19
2022-10-20T15:46:30.281Z,98461.66
2022-10-20T15:51:35.509Z,98447.81
2022-10-20T15:56:37.288Z,98448.81
2022-10-20T16:01:39.353Z,98448.97
2022-10-20T16:06:42.321Z,98429.69
2022-10-20T16:11:44.788Z,98433.03
2022-10-20T16:16:46.605Z,98440.56
2022-10-20T16:21:48.428Z,98434.22
2022-10-20T16:26:50.236Z,98435.69
2022-10-20T16:31:52.074Z,98434.47
2022-10-20T16:36:53.878Z,98437.41
2022-10-20T16:41:55.695Z,98433.09
2022-10-20T16:46:58.085Z,98422.06
2022-10-20T16:52:01.693Z,98432.09
2022-10-20T16:57:04.293Z,98437.53
2022-10-20T17:02:06.142Z,98417.34
2022-10-20T17:07:08.891Z,98415.84
2022-10-20T17:12:10.717Z,98421.94
2022-10-20T17:17:12.528Z,98412.91
2022-10-20T17:22:14.639Z,98412.47
2022-10-20T17:27:16.457Z,98409.34
2022-10-20T17:32:18.431Z,98412.78
2022-10-20T17:37:20.277Z,98418.72
2022-10-20T17:42:22.079Z,98412.19
2022-10-20T17:47:23.904Z,98435.09
2022-10-20T17:52:25.695Z,98420.34
2022-10-20T17:57:29.939Z,98404.81
2022-10-20T18:02:31.817Z,98391.34
2022-10-20T18:07:33.606Z,98388.72
2022-10-20T18:12:35.815Z,98374.28
2022-10-20T18:17:37.897Z,98372.38
2022-10-20T18:22:40.339Z,98351.44
2022-10-20T18:27:42.351Z,98346.84
2022-10-20T18:32:44.146Z,98335.19
2022-10-20T18:37:46.024Z,98338.69
2022-10-20T18:42:47.817Z,98329.00
2022-10-20T18:47:49.622Z,98315.03
2022-10-20T18:52:51.436Z,98322.81
2022-10-20T18:57:53.304Z,98321.31
2022-10-20T19:02:56.907Z,98323.66
2022-10-20T19:08:01.281Z,98308.13
2022-10-20T19:13:03.125Z,98292.50
2022-10-20T19:18:04.943Z,98300.28
2022-10-20T19:23:06.758Z,98306.50
2022-10-20T19:28:10.899Z,98298.31
2022-10-20T19:33:12.726Z,98292.88
2022-10-20T19:38:14.530Z,98274.22
2022-10-20T19:43:16.333Z,98281.84
2022-10-20T19:48:20.027Z,98277.16
2022-10-20T19:53:22.166Z,98267.78
2022-10-20T19:58:24.214Z,98262.72
2022-10-20T20:03:26.614Z,98263.09
2022-10-20T20:08:29.563Z,98286.03
2022-10-20T20:13:31.724Z,98292.34
2022-10-20T20:18:34.461Z,98294.75
2022-10-20T20:23:47.663Z,98283.13
2022-10-20T20:28:58.715Z,98269.88
2022-10-20T20:34:00.623Z,98288.56
2022-10-20T20:39:03.689Z,98273.06
2022-10-20T20:44:08.530Z,98266.06
2022-10-20T20:49:10.644Z,98253.66
2022-10-20T20:54:12.497Z,98247.00
2022-10-20T20:59:14.702Z,98256.75
2022-10-20T21:04:17.450Z,98248.25
2022-10-20T21:09:19.256Z,98252.56
2022-10-20T21:14:21.156Z,98243.59
2022-10-20T21:19:23.086Z,98259.91
2022-10-20T21:24:26.891Z,98280.09
2022-10-20T21:29:28.724Z,98289.50
2022-10-20T21:34:30.559Z,98312.13
2022-10-20T21:39:32.422Z,98326.97
2022-10-20T21:44:34.248Z,98344.09
2022-10-20T21:49:36.191Z,98339.56
2022-10-20T21:54:38.009Z,98330.72
2022-10-20T21:59:39.825Z,98333.56
2022-10-20T22:04:41.597Z,98341.72
2022-10-20T22:09:43.439Z,98338.19
2022-10-20T22:14:47.196Z,98335.91
2022-10-20T22:19:50.395Z,98318.41
2022-10-20T22:24:52.599Z,98328.94
2022-10-20T22:29:57.464Z,98342.81
2022-10-20T22:34:59.498Z,98335.75
2022-10-20T22:40:01.325Z,98329.19
2022-10-20T22:45:03.314Z,98326.44
2022-10-20T22:50:05.550Z,98330.34
2022-10-20T22:55:07.992Z,98315.69
2022-10-20T23:00:11.648Z,98305.56
2022-10-20T23:05:13.508Z,98300.88
2022-10-20T23:10:15.473Z,98280.56
2022-10-20T23:15:17.328Z,98282.03
2022-10-20T23:20:19.201Z,98274.94
2022-10-20T23:25:21.239Z,98260.13
2022-10-20T23:30:23.050Z,98254.63
2022-10-20T23:35:24.885Z,98254.16
2022-10-20T23:40:26.686Z,98272.44
2022-10-20T23:45:28.522Z,98280.59
2022-10-20T23:50:30.356Z,98277.13
2022-10-20T23:55:32.198Z,98277.19
